EDDNGMMX

Guest
Details From EDDN - Nurnberg
To GMMX - Menara
Flight Number -
Tags Generated
Created
Modified
Stats Distance 1,378 nm / 2,553 km
Max Altitude 0 ft / 0 m
Waypoints 7
Social Downloads 1
Likes 0
Share VATSIM

Download

Looking for another format? Having issues loading an existing format? Contact us
Advertisement - Login to hide

Notes

Generated

Route

EDDN ULMES LUMID CRETA IXODA CNZ GMMX

ID Type Via Altitude Latitude Longitude Leg Dist Tot Dist Heading (true) Name
O EDDN APT - 0 ft / 0 m 49.50055˚ 11.05918˚ - 0 nm - -
ULMES FIX - 0 ft / 0 m 46.95500˚ 7.29250˚ 214 nm 214 nm 226° / 223° -
LUMID FIX - 0 ft / 0 m 44.23333˚ 3.78917˚ 219 nm 434 nm 223° / 221° -
CRETA FIX - 0 ft / 0 m 40.87226˚ 0.06156˚ 260 nm 695 nm 221° / 218° -
IXODA FIX - 0 ft / 0 m 34.95889˚ -5.54833˚ 443 nm 1138 nm 219° / 215° -
CNZ NDB - 0 ft / 0 m 31.60056˚ -7.96444˚ 235 nm 1373 nm 212° / 210° MARRAKECH NDB
O GMMX APT - 0 ft / 0 m 31.60837˚ -8.05254˚ 4 nm 1378 nm 276° / 276° -

Altitude Profile

Advertisement - Login to hide

Weather


0- 5 10 15 20 25 30 35+ Temperature / ° C

Clouds and Precipitation
Forecast for 2017-12-17 00:00 UTC. Updated 2 hours ago

Ground ~20,000 ft ~40,000 ft Winds

EDDN

Details ICAO EDDN (NUE)
Name Nurnberg
Region Germany - Civil
Timezone Europe/Berlin (UTC+1.0)
Stats Elevation 1,045 ft / 319 m (AMSL)
Location 49.498744° 11.077580°
Runways 1
Magnetic Variation 3.020° E

METAR

EDDN 170050Z 27007KT 9999 BKN014 02/M01 Q1016 R28/29//95

Decode

TAF

TAF TAF EDDN 162300Z 1700/1724 27008KT 8000 SCT012 BKN030 TEMPO 1700/1714 1500 SHSN BKN008CB PROB30 TEMPO 1714/1721 3500 -SN BKN010

Decode

Departure Runways

ID Width Length Bearing (true) Bearing (mag) Surface Threshold Offset Overrun Length
10 148 ft / 45 m 8,819 ft / 2,688 m 98.60° 95.58° Asphalt 0 ft / 0 m 0 ft / 0 m
28 148 ft / 45 m 8,819 ft / 2,688 m 278.63° 275.61° Asphalt 0 ft / 0 m 0 ft / 0 m

GMMX

Details ICAO GMMX (RAK)
Name MENARA
Region Morocco
Timezone Africa/Casablanca (UTC+0.0)
Stats Elevation 1,545 ft / 471 m (AMSL)
Location 31.606920° -8.036265°
Runways 1
Magnetic Variation 1.999° W

METAR

GMMX 170100Z 01006KT 9999 FEW006 BKN016 11/09 Q1020 NOSIG

Decode

TAF

TAF GMMX 162300Z 1700/1806 04006KT 8000 SCT020 SCT080 TEMPO 1803/1806 3000 BR BKN010

Decode

Destination Runways

ID Width Length Bearing (true) Bearing (mag) Surface Threshold Offset Overrun Length
10 148 ft / 45 m 10,169 ft / 3,100 m 95.99° 97.99° Asphalt 918 ft / 280 m 0 ft / 0 m
28 148 ft / 45 m 10,169 ft / 3,100 m 276.00° 278.00° Asphalt 0 ft / 0 m 0 ft / 0 m

Approach Navaids

Runway Type Ident Frequency Range Bearing (true) Bearing (mag) Slope Elevation
10 Localiser MAR 109.70 MHz 18 nm / 33 km 96.03° 98.02° - 1,545 ft / 471 m (AMSL)
10 Glidescope MAR 109.70 MHz 10 nm / 19 km 96.00° 97.99° 3.00° 1,558 ft / 475 m (AMSL)